Time;durP1;ratioP1;P1;durP2;ratioP2;P2;SDS_P1;SDS_P2;PMS_P1;PMS_P2;Temp;Humidity;BMP_temperature;BMP_pressure;BME280_temperature;BME280_humidity;BME280_pressure;Samples;Min_cycle;Max_cycle;Signal;HPM_P1;HPM_P2
2023/08/09 00:00:52;;;;;;;4.90;2.47;;;12.10;16.90;;;;;;6110085;23;20018;-96
2023/08/09 00:03:31;;;;;;;;;;;;;;;;;;;;;
2023/08/09 00:06:07;;;;;;;2.95;2.53;;;12.10;21.60;;;;;;6157499;23;20096;-95
2023/08/09 00:08:41;;;;;;;4.20;2.70;;;12.10;24.20;;;;;;6087900;23;20022;-95
2023/08/09 00:11:16;;;;;;;3.47;2.80;;;12.10;28.90;;;;;;6084947;23;20249;-96
2023/08/09 00:13:59;;;;;;;4.65;2.70;;;12.00;29.70;;;;;;6112649;23;20017;-95
2023/08/09 00:16:28;;;;;;;4.97;2.50;;;12.10;32.50;;;;;;6106265;23;20214;-95
2023/08/09 00:19:09;;;;;;;5.05;3.20;;;12.10;34.10;;;;;;6083902;23;20018;-95
2023/08/09 00:21:46;;;;;;;5.40;2.95;;;12.40;37.60;;;;;;6105492;23;20022;-95
2023/08/09 00:24:22;;;;;;;3.55;3.10;;;12.10;37.10;;;;;;6106522;23;20024;-95
2023/08/09 00:26:50;;;;;;;3.97;2.90;;;12.10;37.50;;;;;;6082466;23;20097;-95
2023/08/09 00:29:18;;;;;;;3.85;3.33;;;12.00;40.30;;;;;;6107227;23;20449;-95
2023/08/09 00:31:47;;;;;;;7.22;3.60;;;12.00;41.40;;;;;;6107114;23;20513;-94
2023/08/09 00:34:22;;;;;;;4.60;3.40;;;11.90;46.00;;;;;;6083768;23;20024;-95
2023/08/09 00:36:53;;;;;;;5.35;3.40;;;12.00;47.10;;;;;;6132783;23;20025;-94
2023/08/09 00:39:29;;;;;;;6.60;3.35;;;12.00;48.10;;;;;;6108146;23;20103;-95
2023/08/09 00:42:08;;;;;;;4.68;3.10;;;12.60;48.50;;;;;;6108711;23;20073;-95
2023/08/09 00:45:07;;;;;;;;;;;;;;;;;;;;;
2023/08/09 00:47:37;;;;;;;4.95;3.08;;;12.00;51.30;;;;;;6155412;23;20018;-95
2023/08/09 00:50:06;;;;;;;6.38;3.47;;;11.10;48.40;;;;;;6082210;23;20341;-95
2023/08/09 00:52:38;;;;;;;9.23;3.13;;;11.90;49.70;;;;;;6109149;23;20457;-94
2023/08/09 00:55:15;;;;;;;6.47;3.90;;;11.90;51.10;;;;;;6082537;23;20072;-95
2023/08/09 00:57:58;;;;;;;;;;;11.10;50.10;;;;;;6085063;23;20014;-95
2023/08/09 01:00:24;;;;;;;6.97;3.40;;;11.90;54.80;;;;;;6105650;23;19917;-95
2023/08/09 01:02:59;;;;;;;6.53;3.58;;;11.80;49.50;;;;;;6108393;23;20017;-94
2023/08/09 01:05:39;;;;;;;4.28;3.67;;;11.90;48.80;;;;;;6108359;23;20025;-95
2023/08/09 01:08:37;;;;;;;4.82;3.42;;;11.80;51.90;;;;;;6109296;23;20080;-95
2023/08/09 01:11:09;;;;;;;;;;;11.80;51.90;;;;;;6087810;23;20021;-95
2023/08/09 01:13:41;;;;;;;5.55;3.67;;;11.80;69.30;;;;;;6107646;23;20559;-95
2023/08/09 01:16:20;;;;;;;;;;;;;;;;;;;;;
2023/08/09 01:18:48;;;;;;;6.03;4.88;;;11.80;53.20;;;;;;6134739;23;20045;-95
2023/08/09 01:21:28;;;;;;;5.60;3.72;;;11.60;56.50;;;;;;6108212;23;20389;-96
2023/08/09 01:23:57;;;;;;;6.50;4.22;;;11.80;59.80;;;;;;6109559;23;20029;-95
2023/08/09 01:26:27;;;;;;;5.85;4.47;;;11.10;59.20;;;;;;6083059;23;20018;-95
2023/08/09 01:29:02;;;;;;;6.53;4.57;;;11.80;60.20;;;;;;6083804;23;20327;-95
2023/08/09 01:31:33;;;;;;;6.82;5.32;;;11.60;62.00;;;;;;6083050;23;20122;-95
2023/08/09 01:33:59;;;;;;;5.90;4.72;;;11.80;62.50;;;;;;6085701;23;20029;-94
2023/08/09 01:36:56;;;;;;;7.53;5.22;;;11.90;63.40;;;;;;6111638;23;20024;-94
2023/08/09 01:39:28;;;;;;;6.53;5.10;;;11.90;64.70;;;;;;6105790;23;20022;-95
2023/08/09 01:42:00;;;;;;;9.70;5.47;;;11.70;65.00;;;;;;6107386;23;20441;-95
2023/08/09 01:44:35;;;;;;;9.15;6.25;;;11.80;65.10;;;;;;6109655;23;20032;-94
2023/08/09 01:47:04;;;;;;;9.43;5.63;;;11.80;67.70;;;;;;6108802;23;20018;-94
2023/08/09 01:49:40;;;;;;;;;;;;;;;;;;;;;
2023/08/09 01:52:15;;;;;;;7.38;5.85;;;11.60;70.00;;;;;;6158417;23;20014;-94
2023/08/09 01:55:06;;;;;;;12.20;6.25;;;11.70;69.80;;;;;;6110915;23;20024;-95
2023/08/09 01:57:34;;;;;;;;;;;11.00;70.60;;;;;;6087104;23;20057;-95
2023/08/09 02:00:00;;;;;;;5.57;4.68;;;11.40;81.40;;;;;;6108478;23;19927;-95
2023/08/09 02:02:46;;;;;;;5.63;5.13;;;11.60;68.80;;;;;;6084453;23;20017;-95
2023/08/09 02:05:14;;;;;;;6.55;5.05;;;11.70;66.90;;;;;;6111001;23;20029;-95
2023/08/09 02:07:53;;;;;;;;;;;;;;;;;;;;;
2023/08/09 02:10:29;;;;;;;5.70;4.78;;;11.60;67.60;;;;;;6155480;23;20017;-93
2023/08/09 02:13:09;;;;;;;5.40;4.68;;;11.60;68.40;;;;;;6088111;23;20044;-94
2023/08/09 02:15:44;;;;;;;6.18;5.00;;;11.50;67.50;;;;;;6083738;23;20068;-94
2023/08/09 02:18:39;;;;;;;;;;;;;;;;;;;;;
2023/08/09 02:21:12;;;;;;;7.88;5.07;;;11.60;71.50;;;;;;6133249;23;20022;-94
2023/08/09 02:23:56;;;;;;;6.47;4.55;;;10.70;70.40;;;;;;6133969;23;20021;-94
2023/08/09 02:26:43;;;;;;;5.20;4.72;;;11.50;70.90;;;;;;6084943;23;20026;-94
2023/08/09 02:29:14;;;;;;;5.85;4.32;;;11.50;70.70;;;;;;6131423;23;20026;-94
2023/08/09 02:31:47;;;;;;;6.32;4.82;;;11.50;71.30;;;;;;6128716;23;20024;-94
2023/08/09 02:34:25;;;;;;;;;;;;;;;;;;;;;
2023/08/09 02:36:54;;;;;;;4.93;4.35;;;11.50;71.50;;;;;;6106245;23;20020;-95
2023/08/09 02:39:29;;;;;;;7.30;4.97;;;10.50;71.20;;;;;;6104768;23;20434;-96
2023/08/09 02:41:59;;;;;;;7.15;5.03;;;11.50;71.60;;;;;;6083372;23;20026;-95
2023/08/09 02:44:35;;;;;;;7.47;5.10;;;11.30;72.00;;;;;;6056887;23;20044;-94
2023/08/09 02:47:08;;;;;;;6.50;4.72;;;11.40;73.10;;;;;;6101769;23;20022;-95
2023/08/09 02:49:37;;;;;;;5.80;4.55;;;11.30;72.80;;;;;;6078165;23;20022;-95
2023/08/09 02:52:12;;;;;;;6.50;4.63;;;11.90;73.70;;;;;;6103173;23;20022;-95
2023/08/09 02:54:57;;;;;;;5.43;4.63;;;11.30;73.70;;;;;;6079363;23;20018;-94
2023/08/09 02:57:26;;;;;;;5.82;4.85;;;11.40;74.00;;;;;;6105279;23;20018;-94
2023/08/09 03:00:06;;;;;;;;;;;;;;;;;;;;;
2023/08/09 03:02:32;;;;;;;5.10;4.60;;;11.30;72.60;;;;;;6126790;23;20013;-94
2023/08/09 03:05:06;;;;;;;7.20;4.75;;;11.20;72.90;;;;;;6125988;23;20010;-94
2023/08/09 03:07:36;;;;;;;5.53;4.60;;;11.20;73.40;;;;;;6102833;23;20022;-94
2023/08/09 03:10:24;;;;;;;5.28;4.75;;;11.20;74.90;;;;;;6128663;23;20049;-94
2023/08/09 03:13:01;;;;;;;5.13;4.53;;;10.50;75.70;;;;;;6101216;23;20057;-94
2023/08/09 03:15:48;;;;;;;;;;;;;;;;;;;;;
2023/08/09 03:18:22;;;;;;;5.43;4.65;;;10.20;76.40;;;;;;6108058;23;20020;-94
2023/08/09 03:20:55;;;;;;;4.43;4.03;;;10.20;76.40;;;;;;6057721;23;20014;-94
2023/08/09 03:23:32;;;;;;;5.93;4.50;;;11.20;75.90;;;;;;6080155;23;20514;-94
2023/08/09 03:26:02;;;;;;;6.87;5.97;;;11.20;74.90;;;;;;6059450;23;20528;-95
2023/08/09 03:28:46;;;;;;;5.90;4.85;;;11.10;76.50;;;;;;6109215;23;20353;-95
2023/08/09 03:31:35;;;;;;;6.63;4.88;;;11.10;76.50;;;;;;6108640;23;20022;-94
2023/08/09 03:34:07;;;;;;;5.05;4.30;;;11.20;75.90;;;;;;6110440;23;20104;-94
2023/08/09 03:36:48;;;;;;;6.22;4.18;;;11.00;75.10;;;;;;6129124;23;20021;-94
2023/08/09 03:39:18;;;;;;;4.93;4.00;;;11.00;74.60;;;;;;6085671;23;20017;-94
2023/08/09 03:41:58;;;;;;;6.40;4.20;;;11.10;74.60;;;;;;6132879;23;20404;-95
2023/08/09 03:44:31;;;;;;;5.30;4.80;;;11.00;73.50;;;;;;6109173;23;20021;-94
2023/08/09 03:47:18;;;;;;;5.10;4.50;;;11.00;72.60;;;;;;6134121;23;20037;-95
2023/08/09 03:49:49;;;;;;;6.15;4.55;;;11.00;72.40;;;;;;6063380;23;20107;-94
2023/08/09 03:52:40;;;;;;;6.75;4.60;;;10.90;72.50;;;;;;6110199;23;20021;-93
2023/08/09 03:55:08;;;;;;;4.88;4.18;;;11.00;74.30;;;;;;6084680;23;20021;-94
2023/08/09 03:57:44;;;;;;;4.80;3.97;;;10.90;74.70;;;;;;6105434;23;20113;-94
2023/08/09 04:00:25;;;;;;;5.88;4.40;;;11.00;75.60;;;;;;6107864;23;20071;-93
2023/08/09 04:03:02;;;;;;;5.95;4.72;;;11.10;76.60;;;;;;6106316;23;20069;-94
2023/08/09 04:05:35;;;;;;;6.28;5.55;;;10.90;76.40;;;;;;6111100;23;20052;-94
2023/08/09 04:08:26;;;;;;;;;;;;;;;;;;;;;
2023/08/09 04:11:16;;;;;;;7.38;4.88;;;10.80;78.40;;;;;;6086770;23;20453;-94
2023/08/09 04:13:46;;;;;;;6.00;5.13;;;10.90;79.50;;;;;;6107011;23;20021;-94
2023/08/09 04:16:22;;;;;;;7.22;5.50;;;10.90;78.50;;;;;;6082439;23;20028;-94
2023/08/09 04:18:51;;;;;;;5.70;5.18;;;10.80;78.60;;;;;;6107940;23;20021;-94
2023/08/09 04:21:20;;;;;;;8.88;5.85;;;10.60;79.40;;;;;;6105877;23;20021;-94
2023/08/09 04:23:52;;;;;;;7.70;5.68;;;10.80;80.20;;;;;;6105778;23;20021;-94
2023/08/09 04:26:21;;;;;;;6.90;6.15;;;10.80;80.90;;;;;;6083490;23;20017;-94
2023/08/09 04:28:57;;;;;;;8.50;6.28;;;10.80;82.40;;;;;;6108148;23;20032;-93
2023/08/09 04:31:28;;;;;;;8.77;6.68;;;11.80;84.40;;;;;;6107020;23;20013;-95
2023/08/09 04:33:59;;;;;;;6.93;6.22;;;10.70;85.20;;;;;;6086088;23;20045;-94
2023/08/09 04:36:31;;;;;;;6.65;5.80;;;10.80;86.50;;;;;;6111442;23;20053;-94
2023/08/09 04:39:06;;;;;;;7.15;6.35;;;10.70;87.00;;;;;;6083823;23;20192;-93
2023/08/09 04:41:35;;;;;;;7.57;5.85;;;10.80;86.60;;;;;;6087717;23;20061;-93
2023/08/09 04:44:17;;;;;;;7.55;5.75;;;10.80;86.20;;;;;;6108967;23;20021;-94
2023/08/09 04:47:16;;;;;;;7.97;6.22;;;10.80;86.00;;;;;;6087302;23;20021;-93
2023/08/09 04:49:37;;;;;;;8.13;6.38;;;10.70;85.70;;;;;;6108086;23;20025;-94
2023/08/09 04:52:21;;;;;;;6.93;6.22;;;10.80;86.10;;;;;;6109303;23;20014;-93
2023/08/09 04:54:55;;;;;;;10.52;7.03;;;10.80;88.60;;;;;;6131576;23;20021;-94
2023/08/09 04:57:24;;;;;;;7.22;6.53;;;11.10;89.50;;;;;;6109571;23;20021;-94
2023/08/09 04:59:52;;;;;;;7.63;6.93;;;10.80;90.50;;;;;;6106791;23;20145;-93
2023/08/09 05:02:23;;;;;;;9.82;6.75;;;10.80;90.60;;;;;;6107638;23;20319;-94
2023/08/09 05:05:00;;;;;;;8.55;6.72;;;11.00;92.90;;;;;;6084716;23;20064;-94
2023/08/09 05:07:36;;;;;;;8.60;6.93;;;11.00;93.20;;;;;;6112381;23;20017;-93
2023/08/09 05:10:12;;;;;;;8.27;7.00;;;11.10;96.20;;;;;;6085243;23;20072;-94
2023/08/09 05:12:48;;;;;;;7.47;6.68;;;10.80;95.80;;;;;;6107124;23;20049;-94
2023/08/09 05:15:24;;;;;;;7.65;6.68;;;12.10;91.40;;;;;;6083690;23;20017;-93
2023/08/09 05:17:50;;;;;;;8.15;6.82;;;12.50;82.40;;;;;;6084466;23;20107;-94
2023/08/09 05:20:16;;;;;;;6.95;6.22;;;12.60;69.80;;;;;;6107340;23;20021;-93
2023/08/09 05:23:06;;;;;;;8.75;7.95;;;12.80;62.80;;;;;;6106967;23;20096;-94
2023/08/09 05:25:41;;;;;;;6.03;5.43;;;12.80;58.00;;;;;;6107086;23;20017;-93
2023/08/09 05:28:15;;;;;;;6.47;5.88;;;12.90;43.50;;;;;;6108832;23;20077;-94
2023/08/09 05:30:49;;;;;;;8.20;6.60;;;13.10;33.50;;;;;;6083483;23;20031;-95
2023/08/09 05:33:24;;;;;;;6.80;5.95;;;13.10;29.30;;;;;;6083037;23;20021;-93
2023/08/09 05:36:19;;;;;;;6.72;5.78;;;13.30;27.30;;;;;;6108294;23;20033;-94
2023/08/09 05:38:47;;;;;;;6.43;5.53;;;13.50;25.10;;;;;;6105930;23;20060;-95
2023/08/09 05:41:21;;;;;;;6.25;5.35;;;13.50;22.40;;;;;;6108861;23;20249;-94
2023/08/09 05:43:57;;;;;;;6.50;5.90;;;13.60;20.80;;;;;;6108490;23;20021;-94
2023/08/09 05:46:31;;;;;;;6.10;5.50;;;13.80;22.00;;;;;;6084396;23;20057;-94
2023/08/09 05:49:12;;;;;;;;;;;;;;;;;;;;;
2023/08/09 05:51:43;;;;;;;9.95;5.22;;;13.90;23.30;;;;;;6110702;23;20024;-90
2023/08/09 05:54:09;;;;;;;5.20;4.70;;;14.10;21.70;;;;;;6132498;23;20454;-88
2023/08/09 05:56:35;;;;;;;4.97;4.47;;;14.30;15.50;;;;;;6128235;23;20041;-89
2023/08/09 05:59:00;;;;;;;6.20;4.43;;;14.50;4.80;;;;;;6127946;23;20449;-89
2023/08/09 06:01:28;;;;;;;8.23;4.70;;;14.90;1.00;;;;;;6105070;23;20013;-89
2023/08/09 06:03:55;;;;;;;5.15;4.28;;;15.00;1.00;;;;;;6104166;23;20024;-89
2023/08/09 06:06:23;;;;;;;6.85;4.60;;;15.10;1.00;;;;;;6081222;23;20028;-88
2023/08/09 06:08:49;;;;;;;6.20;4.57;;;15.10;1.00;;;;;;6128759;23;20529;-87
2023/08/09 06:11:15;;;;;;;4.55;3.85;;;15.20;1.00;;;;;;6155450;23;20030;-86
2023/08/09 06:13:41;;;;;;;8.13;4.43;;;15.20;1.00;;;;;;6128850;23;20021;-89
2023/08/09 06:16:07;;;;;;;4.60;4.13;;;15.20;1.00;;;;;;6080619;23;20017;-87
2023/08/09 06:18:33;;;;;;;4.23;3.83;;;15.20;1.00;;;;;;6129324;23;20041;-88
2023/08/09 06:20:58;;;;;;;4.37;3.73;;;15.30;1.00;;;;;;6104419;23;20450;-89
2023/08/09 06:23:24;;;;;;;6.20;4.05;;;15.40;1.00;;;;;;6129450;23;20506;-88
2023/08/09 06:25:50;;;;;;;5.47;4.13;;;15.50;1.00;;;;;;6080481;23;20093;-89
2023/08/09 06:28:17;;;;;;;5.63;3.90;;;15.60;1.00;;;;;;6103424;23;20092;-89
2023/08/09 06:30:43;;;;;;;5.28;3.42;;;15.60;1.00;;;;;;6104550;23;20460;-90
2023/08/09 06:33:09;;;;;;;4.07;3.17;;;15.70;1.00;;;;;;6154387;23;20453;-89
2023/08/09 06:35:35;;;;;;;6.87;3.23;;;15.80;1.00;;;;;;6128761;23;20079;-90
2023/08/09 06:38:00;;;;;;;3.60;3.10;;;15.80;1.00;;;;;;6080259;23;20028;-88
2023/08/09 06:40:26;;;;;;;6.80;3.00;;;15.80;1.00;;;;;;6104912;23;20029;-92
2023/08/09 06:42:52;;;;;;;5.63;2.60;;;15.90;1.00;;;;;;6129054;23;20237;-90
2023/08/09 06:45:18;;;;;;;3.92;2.00;;;15.90;1.00;;;;;;6104449;23;20017;-90
2023/08/09 06:47:43;;;;;;;7.05;2.38;;;16.00;1.00;;;;;;6129199;23;20017;-90
2023/08/09 06:50:09;;;;;;;3.60;2.43;;;16.00;1.00;;;;;;6128715;23;20025;-89
2023/08/09 06:52:36;;;;;;;4.57;2.42;;;16.10;1.00;;;;;;6105184;23;20709;-89
2023/08/09 06:55:03;;;;;;;3.05;2.33;;;16.10;1.00;;;;;;6128144;23;20018;-87
2023/08/09 06:57:29;;;;;;;4.25;2.45;;;16.20;1.00;;;;;;6128824;23;20022;-86
2023/08/09 06:59:55;;;;;;;3.40;2.40;;;16.40;1.00;;;;;;6079940;23;20025;-89
2023/08/09 07:02:21;;;;;;;3.40;2.33;;;16.50;1.00;;;;;;6128446;23;20339;-87
2023/08/09 07:04:49;;;;;;;2.38;2.17;;;16.60;1.00;;;;;;6080408;23;20029;-87
2023/08/09 07:07:15;;;;;;;2.80;2.10;;;16.70;1.00;;;;;;6127878;23;20260;-87
2023/08/09 07:09:43;;;;;;;2.83;1.88;;;16.70;1.00;;;;;;6103787;23;20076;-86
2023/08/09 07:12:09;;;;;;;3.28;1.75;;;17.90;1.00;;;;;;6079825;23;20022;-87
2023/08/09 07:14:35;;;;;;;3.78;1.90;;;16.80;1.00;;;;;;6080419;23;20029;-87
2023/08/09 07:17:06;;;;;;;1.80;1.70;;;16.80;1.00;;;;;;6103461;23;20092;-91
2023/08/09 07:19:32;;;;;;;2.88;1.80;;;16.90;1.00;;;;;;6154595;23;20018;-89
2023/08/09 07:21:57;;;;;;;4.45;2.00;;;16.90;1.00;;;;;;6104164;23;20080;-89
2023/08/09 07:24:25;;;;;;;1.50;1.40;;;17.00;1.00;;;;;;6079958;23;20096;-90
2023/08/09 07:26:51;;;;;;;3.08;1.40;;;17.10;1.00;;;;;;6080125;23;20466;-88
2023/08/09 07:29:17;;;;;;;3.20;1.55;;;17.20;1.00;;;;;;6103895;23;20029;-88
2023/08/09 07:31:43;;;;;;;1.23;1.10;;;17.30;1.00;;;;;;6127936;23;20020;-89
2023/08/09 07:34:08;;;;;;;1.38;1.27;;;17.40;1.00;;;;;;6127437;23;20164;-90
2023/08/09 07:36:34;;;;;;;4.33;1.50;;;17.40;1.00;;;;;;6103765;23;20125;-90
2023/08/09 07:39:00;;;;;;;2.67;1.30;;;17.40;1.00;;;;;;6128084;23;20241;-90
2023/08/09 07:41:26;;;;;;;2.22;1.30;;;17.60;1.00;;;;;;6103321;23;20336;-89
2023/08/09 07:43:52;;;;;;;;;;;17.70;99.90;;;;;;6104109;23;20053;-90
2023/08/09 07:46:18;;;;;;;2.08;1.23;;;17.70;1.00;;;;;;6078127;23;19939;-90
2023/08/09 07:48:44;;;;;;;1.50;1.40;;;17.70;99.90;;;;;;6103603;23;20013;-90
2023/08/09 07:51:11;;;;;;;1.52;1.15;;;17.80;99.90;;;;;;6078228;23;20021;-92
2023/08/09 07:53:38;;;;;;;0.80;0.80;;;17.90;99.90;;;;;;6079286;23;20051;-91
2023/08/09 07:56:04;;;;;;;1.35;1.02;;;18.00;99.90;;;;;;6126895;23;20020;-90
2023/08/09 07:58:30;;;;;;;2.92;1.20;;;18.10;99.90;;;;;;6080076;23;20048;-86
2023/08/09 08:00:56;;;;;;;1.75;1.20;;;18.10;99.90;;;;;;6104044;23;20022;-91
2023/08/09 08:03:22;;;;;;;0.98;0.93;;;18.20;99.90;;;;;;6127572;23;20021;-91
2023/08/09 08:05:47;;;;;;;1.88;0.93;;;18.30;99.90;;;;;;6103575;23;20021;-92
2023/08/09 08:08:14;;;;;;;1.35;1.10;;;18.40;66.50;;;;;;6103765;23;20381;-90
2023/08/09 08:10:41;;;;;;;3.03;0.90;;;18.50;99.90;;;;;;6104805;23;20018;-89
2023/08/09 08:13:07;;;;;;;1.58;1.23;;;18.50;1.00;;;;;;6079804;23;20018;-93
2023/08/09 08:15:38;;;;;;;2.28;1.02;;;18.60;1.00;;;;;;6129447;23;20072;-95
2023/08/09 08:18:07;;;;;;;3.47;1.10;;;18.60;99.90;;;;;;6081959;23;20043;-94
2023/08/09 08:20:38;;;;;;;1.65;0.90;;;18.70;99.90;;;;;;6104679;23;20049;-93
2023/08/09 08:23:10;;;;;;;3.58;0.88;;;18.70;99.90;;;;;;6058375;23;20022;-92
2023/08/09 08:25:36;;;;;;;5.68;1.17;;;18.70;7.70;;;;;;6102811;23;20053;-92
2023/08/09 08:28:05;;;;;;;1.40;1.00;;;18.70;1.00;;;;;;6104615;23;20021;-90
2023/08/09 08:30:59;;;;;;;1.38;1.10;;;18.80;99.90;;;;;;6106211;23;20024;-95
2023/08/09 08:33:28;;;;;;;3.30;1.02;;;18.80;99.90;;;;;;6084147;23;20021;-95
2023/08/09 08:36:04;;;;;;;1.38;1.05;;;18.80;99.90;;;;;;6106249;23;20109;-96
2023/08/09 08:39:05;;;;;;;;;;;;;;;;;;;;;
2023/08/09 08:41:34;;;;;;;5.07;1.17;;;18.00;99.90;;;;;;6132185;23;20017;-95
2023/08/09 08:44:08;;;;;;;1.63;0.90;;;17.80;40.80;;;;;;6106221;23;20017;-96
2023/08/09 08:46:48;;;;;;;2.33;1.23;;;18.30;1.00;;;;;;6108407;23;20053;-96
2023/08/09 08:49:24;;;;;;;2.90;1.35;;;18.60;1.00;;;;;;6087331;23;20438;-95
2023/08/09 08:52:09;;;;;;;;;;;;;;;;;;;;;
2023/08/09 08:54:51;;;;;;;;;;;;;;;;;;;;;
2023/08/09 08:57:20;;;;;;;3.88;0.85;;;18.30;1.00;;;;;;6130130;23;20017;-90
2023/08/09 08:59:47;;;;;;;3.10;1.20;;;18.50;99.90;;;;;;6128167;23;20022;-89
2023/08/09 09:02:13;;;;;;;1.00;0.90;;;18.70;1.00;;;;;;6103785;23;20025;-89
2023/08/09 09:04:39;;;;;;;1.25;0.85;;;18.70;99.90;;;;;;6104858;23;20048;-89
2023/08/09 09:07:05;;;;;;;3.95;1.30;;;18.80;1.00;;;;;;6080009;23;20025;-91
2023/08/09 09:09:31;;;;;;;1.50;1.00;;;18.90;99.90;;;;;;6104002;23;20018;-94
2023/08/09 09:12:01;;;;;;;1.90;1.67;;;18.90;1.00;;;;;;6106037;23;20025;-96
2023/08/09 09:14:29;;;;;;;2.42;0.88;;;18.80;99.90;;;;;;6103931;23;20017;-91
2023/08/09 09:16:58;;;;;;;3.47;1.10;;;18.70;99.90;;;;;;6105476;23;20024;-92
2023/08/09 09:19:26;;;;;;;1.40;0.73;;;18.80;99.90;;;;;;6080634;23;20017;-93
2023/08/09 09:21:54;;;;;;;1.83;1.08;;;18.90;1.00;;;;;;6081384;23;20108;-92
2023/08/09 09:24:20;;;;;;;1.38;0.95;;;18.60;99.90;;;;;;6080224;23;20022;-92
2023/08/09 09:26:52;;;;;;;;;;;18.80;75.30;;;;;;6105079;23;20024;-92
2023/08/09 09:29:38;;;;;;;2.45;0.93;;;18.90;90.60;;;;;;6104667;23;19932;-92
2023/08/09 09:32:08;;;;;;;1.33;0.80;;;18.90;99.90;;;;;;6105184;23;20104;-91
2023/08/09 09:34:40;;;;;;;0.90;0.90;;;18.80;99.90;;;;;;6129041;23;20033;-91
2023/08/09 09:37:17;;;;;;;2.25;0.82;;;18.80;63.50;;;;;;6129169;23;20018;-92
2023/08/09 09:39:45;;;;;;;1.58;0.93;;;18.60;97.00;;;;;;6106817;23;20429;-90
2023/08/09 09:42:25;;;;;;;1.50;0.95;;;18.60;99.90;;;;;;6104872;23;20453;-93
2023/08/09 09:45:00;;;;;;;4.30;1.38;;;18.80;1.00;;;;;;6105757;23;20078;-93
2023/08/09 09:47:34;;;;;;;4.18;0.90;;;18.80;1.00;;;;;;6130116;23;20013;-94
2023/08/09 09:50:07;;;;;;;2.13;1.10;;;19.00;99.90;;;;;;6129711;23;20021;-95
2023/08/09 09:52:41;;;;;;;1.70;1.15;;;19.20;99.90;;;;;;6104875;23;20029;-91
2023/08/09 09:55:10;;;;;;;2.08;0.82;;;19.00;99.90;;;;;;6129330;23;20472;-91
2023/08/09 09:57:36;;;;;;;1.15;0.95;;;19.00;99.90;;;;;;6129449;23;20024;-90
2023/08/09 10:00:14;;;;;;;2.97;1.00;;;18.90;99.90;;;;;;6104957;23;20096;-92
2023/08/09 10:02:53;;;;;;;1.10;1.00;;;17.90;70.00;;;;;;6104600;23;20253;-91
2023/08/09 10:05:26;;;;;;;2.05;0.98;;;18.80;99.90;;;;;;6129019;23;20100;-90
2023/08/09 10:07:53;;;;;;;2.13;1.23;;;18.90;1.00;;;;;;6130063;23;20068;-93
2023/08/09 10:10:20;;;;;;;3.30;1.00;;;18.90;32.40;;;;;;6129997;23;20021;-93
2023/08/09 10:12:56;;;;;;;3.58;1.40;;;19.00;1.00;;;;;;6129425;23;20017;-92
2023/08/09 10:15:42;;;;;;;2.40;1.48;;;19.00;99.90;;;;;;6130989;23;20021;-93
2023/08/09 10:18:19;;;;;;;2.80;1.10;;;19.30;99.90;;;;;;6107557;23;20096;-95
2023/08/09 10:20:50;;;;;;;1.60;1.02;;;19.20;99.90;;;;;;6129681;23;20446;-96
2023/08/09 10:23:24;;;;;;;1.42;0.95;;;19.20;99.90;;;;;;6107638;23;20057;-91
2023/08/09 10:25:51;;;;;;;1.98;1.30;;;19.20;1.00;;;;;;6106015;23;20018;-87
2023/08/09 10:28:45;;;;;;;2.33;1.33;;;19.20;85.20;;;;;;6155858;23;20098;-90
2023/08/09 10:31:14;;;;;;;2.05;1.00;;;18.20;1.00;;;;;;6105930;23;20337;-92
2023/08/09 10:34:06;;;;;;;2.70;1.25;;;19.30;99.90;;;;;;6129713;23;20053;-92
2023/08/09 10:36:33;;;;;;;2.22;1.20;;;19.30;1.00;;;;;;6097905;23;20017;-91
2023/08/09 10:39:18;;;;;;;1.20;0.98;;;19.50;30.60;;;;;;6104911;23;20028;-90
2023/08/09 10:42:09;;;;;;;1.27;1.00;;;19.70;1.00;;;;;;6104045;23;20028;-90
2023/08/09 10:44:50;;;;;;;2.78;1.00;;;19.90;1.00;;;;;;6114201;23;20104;-91
2023/08/09 10:47:19;;;;;;;1.15;0.85;;;19.90;1.00;;;;;;6129065;23;20036;-90
2023/08/09 10:49:50;;;;;;;2.88;0.90;;;19.90;1.00;;;;;;6102785;23;20022;-91
2023/08/09 10:52:42;;;;;;;5.00;1.10;;;19.70;1.00;;;;;;6111062;23;20025;-94
2023/08/09 10:55:26;;;;;;;1.70;0.70;;;19.60;99.90;;;;;;6113203;23;20049;-95
2023/08/09 10:57:56;;;;;;;4.78;0.98;;;19.70;1.00;;;;;;6130084;23;20024;-93
2023/08/09 11:00:27;;;;;;;2.50;0.80;;;19.70;99.90;;;;;;6129624;23;20437;-92
2023/08/09 11:02:59;;;;;;;3.55;0.90;;;19.80;99.90;;;;;;6129614;23;20024;-94
2023/08/09 11:05:28;;;;;;;2.10;0.82;;;20.00;99.90;;;;;;6156161;23;20058;-93
2023/08/09 11:07:57;;;;;;;0.93;0.65;;;19.90;99.90;;;;;;6106085;23;20025;-91
2023/08/09 11:10:50;;;;;;;2.78;0.82;;;20.00;1.00;;;;;;6131601;23;20018;-95
2023/08/09 11:13:37;;;;;;;;;;;;;;;;;;;;;
2023/08/09 11:16:07;;;;;;;1.27;0.80;;;20.40;99.90;;;;;;6142387;23;20017;-87
2023/08/09 11:18:35;;;;;;;1.17;0.98;;;20.40;99.90;;;;;;6133207;23;20092;-92
2023/08/09 11:21:07;;;;;;;1.75;1.20;;;20.50;99.90;;;;;;6132213;23;20042;-93
2023/08/09 11:23:32;;;;;;;1.70;1.08;;;20.60;99.90;;;;;;6106777;23;20092;-92
2023/08/09 11:26:03;;;;;;;1.00;0.90;;;20.60;99.90;;;;;;6105905;23;20060;-92
2023/08/09 11:28:31;;;;;;;1.00;0.90;;;20.70;99.90;;;;;;6104592;23;20446;-94
2023/08/09 11:31:00;;;;;;;3.33;1.10;;;20.40;99.90;;;;;;6105893;23;20021;-92
2023/08/09 11:34:14;;;;;;;;;;;;;;;;;;;;;
2023/08/09 11:37:11;;;;;;;2.78;0.80;;;20.20;1.00;;;;;;6153417;23;20018;-95
2023/08/09 11:39:37;;;;;;;2.92;1.13;;;19.50;1.00;;;;;;6075742;23;20024;-93
2023/08/09 11:43:28;;;;;;;2.40;1.10;;;20.50;1.00;;;;;;6107415;23;20029;-95
2023/08/09 11:45:53;;;;;;;2.25;0.90;;;20.60;1.00;;;;;;6110450;23;20040;-95
2023/08/09 11:48:35;;;;;;;1.60;1.10;;;19.90;99.90;;;;;;6110490;23;20022;-93
2023/08/09 11:51:30;;;;;;;2.28;1.20;;;20.40;99.90;;;;;;6122306;23;20017;-92
2023/08/09 11:53:56;;;;;;;1.83;1.17;;;19.70;99.90;;;;;;6117412;23;20048;-87
2023/08/09 11:56:30;;;;;;;1.20;0.82;;;20.20;1.00;;;;;;6109906;23;20030;-92
2023/08/09 11:59:09;;;;;;;;;;;;;;;;;;;;;
2023/08/09 12:02:15;;;;;;;1.77;1.10;;;20.20;1.00;;;;;;6128587;23;20021;-96
2023/08/09 12:04:46;;;;;;;1.75;1.08;;;20.30;1.00;;;;;;6104941;23;20100;-94
2023/08/09 12:07:21;;;;;;;0.98;0.90;;;20.40;99.90;;;;;;6105226;23;20055;-94
2023/08/09 12:09:49;;;;;;;3.05;1.20;;;20.60;99.90;;;;;;6128014;23;20064;-91
2023/08/09 12:12:42;;;;;;;4.63;2.67;;;20.70;99.90;;;;;;6103829;23;20037;-90
2023/08/09 12:15:10;;;;;;;2.58;1.30;;;21.20;99.90;;;;;;6127720;23;20446;-90
2023/08/09 12:17:39;;;;;;;2.00;1.10;;;20.90;1.00;;;;;;6103242;23;20060;-92
2023/08/09 12:20:09;;;;;;;1.90;1.27;;;21.00;1.00;;;;;;6103486;23;20075;-91
2023/08/09 12:22:37;;;;;;;1.65;1.30;;;21.10;1.00;;;;;;6104560;23;20480;-91
2023/08/09 12:25:03;;;;;;;1.33;1.05;;;21.20;1.00;;;;;;6105205;23;20475;-85
2023/08/09 12:27:29;;;;;;;3.65;1.50;;;21.10;1.00;;;;;;6104718;23;20017;-88
2023/08/09 12:29:55;;;;;;;3.88;1.70;;;21.00;99.90;;;;;;6128498;23;20071;-89
2023/08/09 12:32:21;;;;;;;2.20;1.60;;;21.00;99.90;;;;;;6128938;23;20057;-88
2023/08/09 12:34:51;;;;;;;1.85;1.00;;;21.10;99.90;;;;;;6128113;23;20461;-90
2023/08/09 12:37:17;;;;;;;2.90;1.30;;;21.10;99.90;;;;;;6105183;23;20101;-93
2023/08/09 12:39:43;;;;;;;;;;;21.10;99.90;;;;;;6104368;23;20021;-92
2023/08/09 12:42:09;;;;;;;2.72;1.50;;;20.90;99.90;;;;;;6153568;23;19984;-91
2023/08/09 12:44:35;;;;;;;4.68;1.60;;;20.90;1.00;;;;;;6105825;23;20104;-93
2023/08/09 12:47:00;;;;;;;3.40;2.20;;;20.80;1.00;;;;;;6103746;23;20021;-94
2023/08/09 12:49:26;;;;;;;2.03;1.25;;;20.80;1.00;;;;;;6103696;23;20018;-93
2023/08/09 12:51:52;;;;;;;1.95;1.42;;;20.70;19.80;;;;;;6127654;23;20024;-93
2023/08/09 12:54:18;;;;;;;2.45;1.67;;;20.70;21.80;;;;;;6103912;23;20105;-91
2023/08/09 12:56:43;;;;;;;1.88;1.60;;;20.80;1.00;;;;;;6103603;23;20014;-93
2023/08/09 12:59:09;;;;;;;2.22;1.70;;;20.80;7.00;;;;;;6129015;23;20013;-92
2023/08/09 13:01:39;;;;;;;2.53;1.35;;;20.70;1.00;;;;;;6130254;23;20028;-92
2023/08/09 13:04:06;;;;;;;4.00;1.50;;;20.60;1.00;;;;;;6129366;23;20029;-92
2023/08/09 13:06:32;;;;;;;3.60;1.60;;;20.50;1.00;;;;;;6105779;23;20014;-93
2023/08/09 13:08:59;;;;;;;1.38;1.20;;;20.40;1.00;;;;;;6129508;23;20333;-92
2023/08/09 13:11:25;;;;;;;2.75;1.70;;;19.40;99.90;;;;;;6105871;23;20080;-92
2023/08/09 13:13:51;;;;;;;2.60;1.60;;;20.20;99.90;;;;;;6082581;23;20022;-93
2023/08/09 13:16:17;;;;;;;2.08;1.20;;;20.00;99.90;;;;;;6106686;23;20017;-91
2023/08/09 13:18:42;;;;;;;4.03;1.42;;;19.90;99.90;;;;;;6105441;23;20017;-91
2023/08/09 13:21:12;;;;;;;3.53;1.27;;;19.90;99.90;;;;;;6129497;23;20014;-92
2023/08/09 13:23:40;;;;;;;2.78;1.40;;;19.80;99.90;;;;;;6129843;23;20020;-92
2023/08/09 13:26:06;;;;;;;2.28;1.40;;;19.70;99.90;;;;;;6129107;23;20449;-92
2023/08/09 13:28:33;;;;;;;2.15;1.20;;;19.70;99.90;;;;;;6081189;23;20082;-92
2023/08/09 13:30:59;;;;;;;3.92;1.83;;;19.90;99.90;;;;;;6104509;23;20017;-91
2023/08/09 13:33:25;;;;;;;3.13;1.15;;;19.90;99.90;;;;;;6081037;23;20021;-91
2023/08/09 13:35:50;;;;;;;2.78;1.80;;;20.20;99.90;;;;;;6104910;23;20017;-92
2023/08/09 13:38:32;;;;;;;2.20;1.00;;;20.00;99.90;;;;;;6081445;23;20018;-92
2023/08/09 13:41:02;;;;;;;775.00;99.45;;;20.10;99.90;;;;;;6105900;23;20323;-91